Wagner, Pennsylvania
Current Conditions -  °F | °C
As of 5:15 AM on Monday 26 Jan 2015 (Local Time) from KUNV Reporting Station
Light Snow Light Snow  
Wind Chill:   Ceiling: 3200
Heat Index: 16°   Visibility: 3mi
Dew Point: 14°   Wind: 9mph
Humidity: 89%   Direction: 30°NNE
Pressure: 29.83"   Gusts: NA
Location:  40.7125°N, 77.3707°W
Report Text: KUNV 261015Z AUTO 03008KT 3SM -SN SCT008 OVC032 M09/M10 A2983 RMK AO2 T10871102
Loading
Personal Weather Stations






























Interactive Weather Map New forecast layout! Learn more

10-Day Weather Forecast

Advertisements
Track Severe Weather on mobile